Time;durP1;ratioP1;P1;durP2;ratioP2;P2;SDS_P1;SDS_P2;PMS_P1;PMS_P2;Temp;Humidity;BMP_temperature;BMP_pressure;BME280_temperature;BME280_humidity;BME280_pressure;Samples;Min_cycle;Max_cycle;Signal;HPM_P1;HPM_P2
2019/04/10 00:01:38;;;;;;;95.7;74.4;;;;;;;12.24;77.39746;953.0658;;;;
2019/04/10 00:04:02;;;;;;;97.4;75.4;;;;;;;12.22;77.30176;953.0386;;;;
2019/04/10 00:06:27;;;;;;;93.6;72.9;;;;;;;12.23;77.63965;953.1017;;;;
2019/04/10 00:08:52;;;;;;;98.7;75.2;;;;;;;12.15;77.97363;953.0693;;;;
2019/04/10 00:11:18;;;;;;;95.8;76.6;;;;;;;12.12;78.11816;953.0566;;;;
2019/04/10 00:13:43;;;;;;;95.4;73.8;;;;;;;12.14;78.08691;953.0536;;;;
2019/04/10 00:16:08;;;;;;;91.1;73.1;;;;;;;12.14;78.00684;953.0614;;;;
2019/04/10 00:18:33;;;;;;;93.5;72;;;;;;;12.19;77.58496;953.0554;;;;
2019/04/10 00:20:59;;;;;;;98.7;74.9;;;;;;;12.19;77.79395;953.085;;;;
2019/04/10 00:23:26;;;;;;;95.6;74.5;;;;;;;12.24;77.43262;953.0184;;;;
2019/04/10 00:25:49;;;;;;;97.7;74.8;;;;;;;12.24;77.38574;953.048;;;;
2019/04/10 00:28:15;;;;;;;95.9;75.2;;;;;;;12.22;77.40625;952.9615;;;;
2019/04/10 00:30:40;;;;;;;96.5;75.5;;;;;;;12.14;77.54199;952.9548;;;;
2019/04/10 00:33:05;;;;;;;103.8;79.5;;;;;;;12.1;77.16406;952.9819;;;;
2019/04/10 00:35:30;;;;;;;101;78.5;;;;;;;11.98;77.34961;953.0545;;;;
2019/04/10 00:37:55;;;;;;;106.9;80.3;;;;;;;11.89;77.76465;953.0359;;;;
2019/04/10 00:40:21;;;;;;;111;82.4;;;;;;;11.86;78.10645;953.0274;;;;
2019/04/10 00:42:46;;;;;;;107.4;81.2;;;;;;;11.88;77.87891;952.9896;;;;
2019/04/10 00:45:11;;;;;;;105;79.9;;;;;;;11.85;78.23242;953.0028;;;;
2019/04/10 00:47:36;;;;;;;110.1;82.9;;;;;;;11.65;78.17383;953.025;;;;
2019/04/10 00:50:02;;;;;;;113.5;82.6;;;;;;;11.67;78.4209;952.9753;;;;
2019/04/10 00:52:27;;;;;;;105.9;81.6;;;;;;;11.63;78.71387;952.9471;;;;
2019/04/10 00:54:52;;;;;;;106.8;81;;;;;;;11.7;78.50684;952.9675;;;;
2019/04/10 00:57:18;;;;;;;106.5;80.3;;;;;;;11.72;78.30273;952.9684;;;;
2019/04/10 00:59:43;;;;;;;106.3;80.5;;;;;;;11.71;78.47363;952.9704;;;;
2019/04/10 01:02:08;;;;;;;104.2;80;;;;;;;11.79;78.0127;952.994;;;;
2019/04/10 01:04:33;;;;;;;106.9;79.8;;;;;;;11.78;78.0127;952.9604;;;;
2019/04/10 01:06:58;;;;;;;103.6;79.2;;;;;;;11.8;77.74902;952.9663;;;;
2019/04/10 01:09:23;;;;;;;104.4;79.9;;;;;;;11.85;77.53516;952.9564;;;;
2019/04/10 01:11:48;;;;;;;110;83;;;;;;;11.75;77.56543;952.9135;;;;
2019/04/10 01:14:13;;;;;;;110.6;81.6;;;;;;;11.75;77.74121;952.8661;;;;
2019/04/10 01:16:38;;;;;;;106.6;80.4;;;;;;;11.77;77.55664;952.9243;;;;
2019/04/10 01:19:04;;;;;;;104.5;80.4;;;;;;;11.73;77.50391;952.8817;;;;
2019/04/10 01:21:29;;;;;;;101.9;77.2;;;;;;;11.57;77.01172;952.822;;;;
2019/04/10 01:23:54;;;;;;;98.5;76.2;;;;;;;11.56;75.89648;952.8653;;;;
2019/04/10 01:26:19;;;;;;;96.8;75.1;;;;;;;11.56;75.38477;952.9216;;;;
2019/04/10 01:28:44;;;;;;;101.8;76.7;;;;;;;11.57;75.37793;952.8811;;;;
2019/04/10 01:31:09;;;;;;;97.6;73.7;;;;;;;11.51;74.49609;952.9366;;;;
2019/04/10 01:33:34;;;;;;;93.4;72.8;;;;;;;11.44;74.10254;952.8303;;;;
2019/04/10 01:36:00;;;;;;;96.7;72.9;;;;;;;11.53;74.62695;952.8617;;;;
2019/04/10 01:38:25;;;;;;;92.9;69.8;;;;;;;11.64;74.34473;952.885;;;;
2019/04/10 01:40:50;;;;;;;90.4;69.2;;;;;;;11.73;73.7334;952.9241;;;;
2019/04/10 01:43:15;;;;;;;94.5;70.5;;;;;;;11.77;73.79785;952.873;;;;
2019/04/10 01:45:40;;;;;;;91.6;71.5;;;;;;;11.77;73.12598;952.8205;;;;
2019/04/10 01:48:05;;;;;;;92.7;71.6;;;;;;;11.67;73.57227;952.8254;;;;
2019/04/10 01:50:32;;;;;;;98.3;74.5;;;;;;;11.69;73.34375;952.8314;;;;
2019/04/10 01:52:56;;;;;;;92.6;74.3;;;;;;;11.67;73.44434;952.796;;;;
2019/04/10 01:55:21;;;;;;;90.8;73;;;;;;;11.66;72.95508;952.7802;;;;
2019/04/10 01:57:46;;;;;;;87.1;70.4;;;;;;;11.6;72.89941;952.749;;;;
2019/04/10 02:00:15;;;;;;;92.3;71.9;;;;;;;11.58;73.13965;952.748;;;;
2019/04/10 02:02:45;;;;;;;89.9;71.7;;;;;;;11.54;72.22949;952.7658;;;;
2019/04/10 02:05:01;;;;;;;92.7;72.7;;;;;;;11.39;72.87598;952.7566;;;;
2019/04/10 02:07:26;;;;;;;90.4;71.4;;;;;;;11.32;72.44727;952.7566;;;;
2019/04/10 02:09:51;;;;;;;91.3;71.2;;;;;;;11.17;72.24902;952.7335;;;;
2019/04/10 02:12:17;;;;;;;92;72.1;;;;;;;11.16;73.41504;952.7188;;;;
2019/04/10 02:14:42;;;;;;;93.5;73;;;;;;;11.13;73.78125;952.7355;;;;
2019/04/10 02:17:07;;;;;;;89;70.5;;;;;;;11.12;73.17871;952.7659;;;;
2019/04/10 02:19:32;;;;;;;92.3;71.7;;;;;;;11.1;73.2207;952.7;;;;
2019/04/10 02:21:58;;;;;;;90.1;70.3;;;;;;;11.01;72.88184;952.7209;;;;
2019/04/10 02:24:23;;;;;;;87.4;68.7;;;;;;;10.99;73.01758;952.6805;;;;
2019/04/10 02:26:48;;;;;;;96.5;71.9;;;;;;;10.87;73.65625;952.654;;;;
2019/04/10 02:29:13;;;;;;;89.8;69.5;;;;;;;10.83;73.55762;952.5734;;;;
2019/04/10 02:31:38;;;;;;;93;71.4;;;;;;;10.86;73.90918;952.5988;;;;
2019/04/10 02:34:03;;;;;;;85.8;68.6;;;;;;;10.84;73.19824;952.6365;;;;
2019/04/10 02:36:29;;;;;;;88.2;69.3;;;;;;;10.84;74.51855;952.5942;;;;
2019/04/10 02:38:54;;;;;;;86.3;67.9;;;;;;;10.91;73.96484;952.6866;;;;
2019/04/10 02:41:20;;;;;;;88.1;70;;;;;;;10.87;74.05176;952.653;;;;
2019/04/10 02:43:45;;;;;;;84.5;67.7;;;;;;;10.82;72.7207;952.6178;;;;
2019/04/10 02:46:10;;;;;;;87.8;68.5;;;;;;;10.74;73.1123;952.5388;;;;
2019/04/10 02:48:35;;;;;;;87.8;68;;;;;;;10.76;73.82324;952.5822;;;;
2019/04/10 02:51:01;;;;;;;86.4;67;;;;;;;10.79;73.36328;952.5666;;;;
2019/04/10 02:53:25;;;;;;;83.6;66.6;;;;;;;10.76;73.09375;952.6078;;;;
2019/04/10 02:55:51;;;;;;;85.6;67.6;;;;;;;10.59;73.37598;952.6651;;;;
2019/04/10 02:58:16;;;;;;;86;68.1;;;;;;;10.52;74.00195;952.596;;;;
2019/04/10 03:00:41;;;;;;;87.7;68.1;;;;;;;10.6;74.23535;952.6375;;;;
2019/04/10 03:03:06;;;;;;;83.9;66.1;;;;;;;10.68;73.94824;952.6443;;;;
2019/04/10 03:05:31;;;;;;;83.3;66;;;;;;;10.72;73.2041;952.6434;;;;
2019/04/10 03:07:56;;;;;;;84.4;67.2;;;;;;;10.77;73.07129;952.663;;;;
2019/04/10 03:10:22;;;;;;;82.7;65;;;;;;;10.83;73.07129;952.6799;;;;
2019/04/10 03:12:47;;;;;;;85.7;66.4;;;;;;;10.84;72.77051;952.6877;;;;
2019/04/10 03:15:12;;;;;;;87.9;68;;;;;;;10.71;72.72656;952.7045;;;;
2019/04/10 03:17:39;;;;;;;88.4;68.4;;;;;;;10.62;73.58105;952.6472;;;;
2019/04/10 03:20:04;;;;;;;89.2;67.5;;;;;;;10.71;73.17773;952.6661;;;;
2019/04/10 03:22:30;;;;;;;84.7;66.3;;;;;;;10.7;73.28223;952.6326;;;;
2019/04/10 03:24:55;;;;;;;83.3;66;;;;;;;10.65;73.58398;952.7083;;;;
2019/04/10 03:27:20;;;;;;;85.1;66.7;;;;;;;10.61;72.90625;952.6365;;;;
2019/04/10 03:29:45;;;;;;;86.5;67.5;;;;;;;10.55;73.32422;952.6266;;;;
2019/04/10 03:34:35;;;;;;;85.4;67.2;;;;;;;10.7;72.99121;952.676;;;;
2019/04/10 03:37:01;;;;;;;81;64;;;;;;;10.76;72.40918;952.6856;;;;
2019/04/10 03:39:26;;;;;;;80.1;61.7;;;;;;;10.81;72.58203;952.7891;;;;
2019/04/10 03:41:51;;;;;;;85.1;66.8;;;;;;;10.85;71.8125;952.7455;;;;
2019/04/10 03:44:16;;;;;;;83.6;65.2;;;;;;;10.83;71.90234;952.7143;;;;
2019/04/10 03:46:41;;;;;;;80.8;65;;;;;;;10.79;71.1875;952.7329;;;;
2019/04/10 03:49:06;;;;;;;80;65.1;;;;;;;10.63;72.27441;952.7653;;;;
2019/04/10 03:51:31;;;;;;;89.6;67.8;;;;;;;10.62;73.14063;952.7495;;;;
2019/04/10 03:53:57;;;;;;;85.6;66.7;;;;;;;10.52;72.48633;952.7239;;;;
2019/04/10 03:56:22;;;;;;;86.6;68.3;;;;;;;10.51;72.99512;952.6954;;;;
2019/04/10 03:58:47;;;;;;;86.8;67.3;;;;;;;10.52;73.05371;952.72;;;;
2019/04/10 12:46:18;;;;;;;88.6;73.6;;;;;;;15.07;60.26074;954.1228;;;;
2019/04/10 12:49:43;;;;;;;83;70.9;;;;;;;15.19;58.76953;954.1013;;;;
2019/04/10 12:52:08;;;;;;;84.3;70.5;;;;;;;14.95;57.8125;954.1147;;;;
2019/04/10 12:54:33;;;;;;;85.4;71.1;;;;;;;14.93;58.37305;954.0872;;;;
2019/04/10 12:56:59;;;;;;;85.2;71.1;;;;;;;14.99;58.68457;954.0914;;;;
2019/04/10 12:59:24;;;;;;;85.5;71.1;;;;;;;15.16;58.68457;954.1303;;;;
2019/04/10 13:01:49;;;;;;;84.8;68.6;;;;;;;15.01;58.78125;954.1007;;;;
2019/04/10 13:04:14;;;;;;;74.1;62.8;;;;;;;15.05;62.56152;954.1172;;;;
2019/04/10 13:06:56;;;;;;;84.7;70.4;;;;;;;15.07;58.17969;954.105;;;;
2019/04/10 13:09:21;;;;;;;83.1;70.8;;;;;;;15.18;58.09082;954.1231;;;;
2019/04/10 13:11:46;;;;;;;83.2;70.6;;;;;;;15.29;57.50781;954.0688;;;;
2019/04/10 13:14:11;;;;;;;83.4;70.5;;;;;;;15.28;57.37793;954.0839;;;;
2019/04/10 13:16:36;;;;;;;85.6;71.9;;;;;;;15.27;57.6582;954.0722;;;;
2019/04/10 13:19:01;;;;;;;79.5;68.7;;;;;;;15.36;56.26563;954.0547;;;;
2019/04/10 13:21:26;;;;;;;82.2;70.3;;;;;;;15.09;56.94434;954.0848;;;;
2019/04/10 13:23:52;;;;;;;81.9;70;;;;;;;15.02;56.94727;954.052;;;;
2019/04/10 13:26:17;;;;;;;87.5;70.7;;;;;;;14.88;57.18555;954.0176;;;;
2019/04/10 13:28:42;;;;;;;87.4;70.8;;;;;;;14.61;57.02051;954.0778;;;;
2019/04/10 13:31:07;;;;;;;84.1;71;;;;;;;14.54;58.02832;954.0824;;;;
2019/04/10 13:33:33;;;;;;;89.1;72.1;;;;;;;14.42;59.27344;954.0483;;;;
2019/04/10 13:35:57;;;;;;;88.6;72.8;;;;;;;14.26;59.91602;954.1184;;;;
2019/04/10 13:38:22;;;;;;;93.1;74;;;;;;;14.25;61.01172;954.1155;;;;
2019/04/10 13:40:48;;;;;;;88.3;71.7;;;;;;;14.13;59.4668;954.1238;;;;
2019/04/10 13:43:13;;;;;;;85.9;71.1;;;;;;;13.99;60.56738;954.1055;;;;
2019/04/10 13:45:38;;;;;;;86.8;71.7;;;;;;;14;60.41699;954.0995;;;;
2019/04/10 13:48:03;;;;;;;85.4;70.1;;;;;;;13.95;60.02734;954.0458;;;;
2019/04/10 13:50:28;;;;;;;83.8;70.6;;;;;;;13.99;60.25195;954.0916;;;;
2019/04/10 13:52:53;;;;;;;82.9;69.3;;;;;;;14.01;60.11621;954.1281;;;;
2019/04/10 13:55:18;;;;;;;84.8;72;;;;;;;13.99;60.31055;954.1174;;;;
2019/04/10 13:57:43;;;;;;;88;72.3;;;;;;;14.04;60.72559;954.0249;;;;
2019/04/10 14:00:16;;;;;;;91.3;74.7;;;;;;;14.04;62.28906;954.017;;;;
2019/04/10 14:02:36;;;;;;;88.7;72.7;;;;;;;14;62.08594;954.1331;;;;
2019/04/10 14:04:59;;;;;;;92.3;75.4;;;;;;;14.1;63.99902;954.0637;;;;
2019/04/10 14:07:24;;;;;;;91.6;75.5;;;;;;;14.09;64.1748;954.1033;;;;
2019/04/10 14:09:49;;;;;;;97.4;75.9;;;;;;;14.09;63.68457;954.0865;;;;
2019/04/10 14:12:14;;;;;;;89.4;75.1;;;;;;;14.23;62.7002;954.187;;;;
2019/04/10 14:14:39;;;;;;;90.9;75.4;;;;;;;14.37;63.45605;954.1458;;;;
2019/04/10 14:17:04;;;;;;;90.2;74.1;;;;;;;14.34;63.12598;954.1154;;;;
2019/04/10 14:19:30;;;;;;;91.1;74.2;;;;;;;14.4;62.52734;954.1973;;;;
2019/04/10 14:21:55;;;;;;;86.3;72.7;;;;;;;14.39;62.22168;954.1387;;;;
2019/04/10 14:24:20;;;;;;;89.3;70.1;;;;;;;14.31;59.52637;954.1969;;;;
2019/04/10 14:29:14;;;;;;;86.2;71.3;;;;;;;14.14;61.34668;954.2554;;;;
2019/04/10 14:31:38;;;;;;;85.8;69.4;;;;;;;13.95;60.35254;954.1626;;;;
2019/04/10 14:34:01;;;;;;;82.2;67.6;;;;;;;13.89;60.4248;954.1749;;;;
2019/04/10 14:36:26;;;;;;;82.9;66.6;;;;;;;13.84;59.93945;954.238;;;;
2019/04/10 14:38:51;;;;;;;81.1;65.2;;;;;;;13.78;59.97949;954.2709;;;;
2019/04/10 14:41:17;;;;;;;84.9;67.4;;;;;;;13.8;60.09766;954.2559;;;;
2019/04/10 14:43:42;;;;;;;80.9;65.4;;;;;;;13.71;59.58496;954.2985;;;;
2019/04/10 14:46:07;;;;;;;81.7;66.4;;;;;;;13.72;60.12207;954.2806;;;;
2019/04/10 14:48:32;;;;;;;81.5;67;;;;;;;13.85;59.76758;954.2919;;;;
2019/04/10 14:50:57;;;;;;;84;68.2;;;;;;;13.8;60.71582;954.3381;;;;
2019/04/10 14:53:23;;;;;;;80.5;66.8;;;;;;;13.82;60.8584;954.3222;;;;
2019/04/10 14:55:48;;;;;;;81;67;;;;;;;13.84;60.81543;954.3318;;;;
2019/04/10 14:58:13;;;;;;;85.5;69.5;;;;;;;13.92;59.92871;954.3677;;;;
2019/04/10 15:00:48;;;;;;;80.9;68.6;;;;;;;13.75;61.02344;954.4047;;;;
2019/04/10 15:03:03;;;;;;;82.6;69.4;;;;;;;13.89;60.74121;954.3757;;;;
2019/04/10 15:05:29;;;;;;;84.6;70.8;;;;;;;13.83;61.30273;954.3894;;;;
2019/04/10 15:07:55;;;;;;;83.2;70.7;;;;;;;13.94;60.73535;954.3992;;;;
2019/04/10 15:10:20;;;;;;;84.2;67.8;;;;;;;13.89;60.56641;954.4015;;;;
2019/04/10 15:12:45;;;;;;;83;68.8;;;;;;;13.87;60.16602;954.3789;;;;
2019/04/10 15:15:10;;;;;;;85.5;69;;;;;;;13.86;60.10547;954.3463;;;;
2019/04/10 15:17:35;;;;;;;85.9;70.4;;;;;;;13.85;59.97754;954.3987;;;;
2019/04/10 15:20:00;;;;;;;83.5;69.1;;;;;;;13.83;60.25293;954.4111;;;;
2019/04/10 15:22:25;;;;;;;83.9;68.5;;;;;;;13.93;59.56836;954.4437;;;;
2019/04/10 15:24:50;;;;;;;84.5;69.7;;;;;;;13.91;60.03125;954.4033;;;;
2019/04/10 15:27:15;;;;;;;89.5;73;;;;;;;13.92;59.50879;954.4576;;;;
2019/04/10 15:29:40;;;;;;;91.5;72.6;;;;;;;13.81;60.42578;954.4261;;;;
2019/04/10 15:32:05;;;;;;;86.5;71.2;;;;;;;13.87;60.06055;954.461;;;;
2019/04/10 15:34:31;;;;;;;87.6;70;;;;;;;13.78;60.56055;954.4431;;;;
2019/04/10 15:36:56;;;;;;;84;69.4;;;;;;;13.75;60.32422;954.5204;;;;
2019/04/10 15:39:21;;;;;;;83.3;69.2;;;;;;;13.8;60.23828;954.5093;;;;
2019/04/10 15:41:46;;;;;;;82.8;67.9;;;;;;;13.77;60.56055;954.4827;;;;
2019/04/10 15:44:11;;;;;;;81.4;69.3;;;;;;;13.65;60.56641;954.4828;;;;
2019/04/10 15:46:36;;;;;;;85.5;69.7;;;;;;;13.66;61.29004;954.4819;;;;
2019/04/10 15:49:01;;;;;;;84.7;69.9;;;;;;;13.73;61.48633;954.484;;;;
2019/04/10 15:51:26;;;;;;;87;69.4;;;;;;;13.74;62.31543;954.5344;;;;
2019/04/10 15:53:52;;;;;;;84.5;68.7;;;;;;;13.87;61.45898;954.5125;;;;
2019/04/10 15:56:17;;;;;;;83.9;68.9;;;;;;;13.87;61.20508;954.5372;;;;
2019/04/10 15:58:42;;;;;;;84.2;69;;;;;;;13.93;60.4668;954.5942;;;;
2019/04/10 16:01:11;;;;;;;84.8;72.3;;;;;;;14.03;61.2041;954.5496;;;;
2019/04/10 16:03:32;;;;;;;85.8;70.6;;;;;;;13.86;60.44336;954.6036;;;;
2019/04/10 16:05:57;;;;;;;84.5;69.7;;;;;;;13.87;60.78418;954.5975;;;;
2019/04/10 16:08:23;;;;;;;85.9;72;;;;;;;13.83;60.45117;954.5784;;;;
2019/04/10 16:22:11;;;;;;;119.6;98.6;;;;;;;13.75;61.04688;954.6838;;;;
2019/04/10 16:24:30;;;;;;;85.2;69.3;;;;;;;13.71;61.70703;954.6753;;;;
2019/04/10 16:26:55;;;;;;;82.7;67.4;;;;;;;13.7;60.76074;954.6853;;;;
2019/04/10 16:29:21;;;;;;;79.2;66.4;;;;;;;13.58;61.61719;954.6853;;;;
2019/04/10 16:31:46;;;;;;;80.7;65.3;;;;;;;13.63;61.36816;954.6956;;;;
2019/04/10 16:34:11;;;;;;;85.9;68.2;;;;;;;13.55;62.90625;954.6805;;;;
2019/04/10 16:36:36;;;;;;;80.1;65.9;;;;;;;13.63;63.08105;954.6828;;;;
2019/04/10 16:39:02;;;;;;;83.6;67.2;;;;;;;13.69;62.50684;954.7467;;;;
2019/04/10 16:41:27;;;;;;;85;68.1;;;;;;;13.61;63.08984;954.7623;;;;
2019/04/10 16:43:52;;;;;;;78.1;66.3;;;;;;;13.76;62.7041;954.7539;;;;
2019/04/10 16:46:17;;;;;;;82.3;69.2;;;;;;;13.86;63.65039;954.7748;;;;
2019/04/10 16:48:42;;;;;;;84.6;68.9;;;;;;;13.78;62.82324;954.8755;;;;
2019/04/10 16:51:07;;;;;;;85.7;69.7;;;;;;;13.82;63.83203;954.8406;;;;
2019/04/10 16:53:33;;;;;;;84.2;70;;;;;;;13.71;64.09473;954.8901;;;;
2019/04/10 16:55:58;;;;;;;86.6;69.6;;;;;;;13.74;63.49219;954.8906;;;;
2019/04/10 16:58:23;;;;;;;87.1;71.2;;;;;;;13.74;64.56641;954.941;;;;
2019/04/10 17:00:48;;;;;;;87.6;72.2;;;;;;;13.76;65.55957;954.934;;;;
2019/04/10 17:03:13;;;;;;;88.4;72.6;;;;;;;13.79;64.23438;954.9517;;;;
2019/04/10 17:05:38;;;;;;;90.4;73;;;;;;;13.77;64.46484;954.9626;;;;
2019/04/10 17:08:04;;;;;;;89.4;72.7;;;;;;;13.77;64.10352;954.9933;;;;
2019/04/10 17:10:30;;;;;;;88.6;72.3;;;;;;;13.56;64.6084;954.9406;;;;
2019/04/10 17:12:55;;;;;;;90.3;72.9;;;;;;;13.61;64.44141;954.986;;;;
2019/04/10 17:15:20;;;;;;;188.8;142.7;;;;;;;13.54;64.99023;954.9774;;;;
2019/04/10 17:17:49;;;;;;;105;83;;;;;;;13.43;65.26367;955.074;;;;
2019/04/10 17:20:14;;;;;;;89.4;72.4;;;;;;;13.42;65.08789;955.0889;;;;
2019/04/10 17:22:39;;;;;;;90.4;74;;;;;;;13.24;66.08691;955.1772;;;;
2019/04/10 17:25:04;;;;;;;85.6;71.5;;;;;;;13.17;66.94727;955.1617;;;;
2019/04/10 17:27:31;;;;;;;83.9;69.8;;;;;;;13.06;65;955.1965;;;;
2019/04/10 17:29:55;;;;;;;91;71.7;;;;;;;12.99;65.78027;955.1981;;;;
2019/04/10 17:32:20;;;;;;;84.1;68.4;;;;;;;12.88;67.69434;955.2855;;;;
2019/04/10 17:34:45;;;;;;;91.1;71.2;;;;;;;12.87;66.21582;955.2697;;;;
2019/04/10 17:37:11;;;;;;;104.3;84.8;;;;;;;12.92;66.54883;955.2341;;;;
2019/04/10 17:39:36;;;;;;;93.8;73.2;;;;;;;12.85;67.43359;955.2727;;;;
2019/04/10 17:42:01;;;;;;;94.2;76.4;;;;;;;12.76;68.22168;955.3108;;;;
2019/04/10 17:44:27;;;;;;;97.6;78.3;;;;;;;12.56;69.63281;955.3027;;;;
2019/04/10 17:46:52;;;;;;;97.3;75.8;;;;;;;12.56;68.73633;955.3204;;;;
2019/04/10 17:49:17;;;;;;;109.6;88.3;;;;;;;12.35;69.92383;955.3178;;;;
2019/04/10 17:51:43;;;;;;;101.8;78.9;;;;;;;12.24;70.15039;955.2944;;;;
2019/04/10 17:54:08;;;;;;;100.6;78.5;;;;;;;12.17;70.81055;955.3251;;;;
